.
WxDataArchive / Data Records for 2009-03-17
2009-03-16 March 2009 2009-03-18

Data Records for Tuesday, 17 March 2009

Time	Temp	Chill	HIndex	Humid	Dewpt	 Wind 	HiWind	WindDir	Rain 	Barom 
-----	----	-----	------	-----	-----	------	------	-------	-----	----- 
00:00	39.5	39.5	39.5	70	30.5	0	0	---	0.00	30.218 
00:05	39.2	39.2	39.2	71	30.6	0	0	---	0.00	30.214 
00:10	38.8	38.8	38.8	72	30.6	0	0	---	0.00	30.214 
00:15	38.5	38.5	38.5	73	30.6	0	0	---	0.00	30.216 
00:20	38.3	38.3	38.3	74	30.8	0	0	---	0.00	30.218 
00:25	38.0	38.0	38.0	75	30.8	0	0	---	0.00	30.216 
00:30	37.9	37.9	37.9	77	31.3	0	0	---	0.00	30.216 
00:35	37.6	37.6	37.6	78	31.4	0	0	---	0.00	30.215 
00:40	37.3	37.3	37.3	78	31.1	0	0	---	0.00	30.214 
00:45	37.2	37.2	37.2	79	31.3	0	0	---	0.00	30.215 
00:50	36.9	36.9	36.9	80	31.3	0	0	---	0.00	30.216 
00:55	36.8	36.8	36.8	81	31.5	0	0	---	0.00	30.217 
01:00	36.6	36.6	36.6	81	31.3	0	0	---	0.00	30.218 
01:05	36.5	36.5	36.5	81	31.2	0	0	---	0.00	30.216 
01:10	36.3	36.3	36.3	82	31.3	0	0	---	0.00	30.215 
01:15	36.2	36.2	36.2	82	31.2	0	0	---	0.00	30.216 
01:20	36.0	36.0	36.0	83	31.3	0	0	---	0.00	30.216 
01:25	35.8	35.8	35.8	83	31.2	0	0	---	0.00	30.215 
01:30	35.6	35.6	35.6	84	31.3	0	0	---	0.00	30.216 
01:35	35.6	35.6	35.6	84	31.3	0	0	---	0.00	30.218 
01:40	35.5	35.5	35.5	83	30.9	0	0	---	0.00	30.218 
01:45	35.3	35.3	35.3	84	31.0	0	0	---	0.00	30.220 
01:50	35.2	35.2	35.2	84	30.9	0	0	---	0.00	30.220 
01:55	34.9	34.9	34.9	84	30.6	0	0	---	0.00	30.220 
02:00	34.7	34.7	34.7	84	30.4	0	0	---	0.00	30.219 
02:05	34.6	34.6	34.6	85	30.6	0	0	---	0.00	30.218 
02:10	34.7	34.7	34.7	85	30.7	0	0	---	0.00	30.219 
02:15	34.7	34.7	34.7	85	30.7	0	0	---	0.00	30.218 
02:20	34.6	34.6	34.6	85	30.6	0	0	---	0.00	30.218 
02:25	34.4	34.4	34.4	85	30.4	0	0	---	0.00	30.217 
02:30	34.1	34.1	34.1	86	30.4	0	0	---	0.00	30.216 
02:35	34.1	34.1	34.1	86	30.4	0	0	---	0.00	30.215 
02:40	34.0	34.0	34.0	86	30.3	0	0	---	0.00	30.215 
02:45	33.7	33.7	33.7	86	30.0	0	0	---	0.00	30.212 
02:50	33.7	33.7	33.7	87	30.3	0	0	---	0.00	30.213 
02:55	33.7	33.7	33.7	87	30.3	0	0	---	0.00	30.213 
03:00	33.7	33.7	33.7	88	30.5	0	0	---	0.00	30.213 
03:05	33.5	33.5	33.5	88	30.3	0	0	---	0.00	30.209 
03:10	33.4	33.4	33.4	88	30.2	0	0	---	0.00	30.206 
03:15	33.4	33.4	33.4	88	30.2	0	0	---	0.00	30.207 
03:20	33.2	33.2	33.2	88	30.0	0	0	---	0.00	30.205 
03:25	33.1	33.1	33.1	88	29.9	0	0	---	0.00	30.204 
03:30	33.1	33.1	33.1	89	30.2	0	0	---	0.00	30.203 
03:35	33.2	33.2	33.2	89	30.3	0	0	---	0.00	30.204 
03:40	33.2	33.2	33.2	89	30.3	0	0	---	0.00	30.206 
03:45	33.2	33.2	33.2	89	30.3	0	0	---	0.00	30.204 
03:50	33.1	33.1	33.1	89	30.2	0	0	---	0.00	30.205 
03:55	33.1	33.1	33.1	89	30.2	0	0	---	0.00	30.206 
04:00	32.9	32.9	32.9	89	30.0	0	0	---	0.00	30.206 
04:05	32.9	32.9	32.9	89	30.0	0	0	---	0.00	30.208 
04:10	32.8	32.8	32.8	89	29.9	0	0	---	0.00	30.207 
04:15	32.7	32.7	32.7	89	29.8	0	0	---	0.00	30.207 
04:20	32.5	32.5	32.5	89	29.6	0	0	---	0.00	30.208 
04:25	32.4	32.4	32.4	89	29.5	0	0	---	0.00	30.207 
04:30	32.4	32.4	32.4	89	29.5	0	0	---	0.00	30.209 
04:35	32.4	32.4	32.4	90	29.8	0	0	---	0.00	30.208 
04:40	32.4	32.4	32.4	90	29.8	0	0	---	0.00	30.206 
04:45	32.4	32.4	32.4	90	29.8	0	0	---	0.00	30.206 
04:50	32.4	32.4	32.4	90	29.8	0	0	---	0.00	30.207 
04:55	32.2	32.2	32.2	90	29.6	0	0	---	0.00	30.206 
05:00	32.1	32.1	32.1	90	29.5	0	0	---	0.00	30.211 
05:05	32.1	32.1	32.1	90	29.5	0	0	---	0.00	30.216 
05:10	32.1	32.1	32.1	90	29.5	0	0	---	0.00	30.216 
05:15	32.1	32.1	32.1	90	29.5	0	0	---	0.00	30.218 
05:20	32.1	32.1	32.1	91	29.8	0	0	---	0.00	30.219 
05:25	32.2	32.2	32.2	91	29.9	0	0	---	0.00	30.219 
05:30	32.2	32.2	32.2	91	29.9	0	0	---	0.00	30.218 
05:35	32.2	32.2	32.2	91	29.9	0	0	---	0.00	30.219 
05:40	32.1	32.1	32.1	91	29.8	0	0	---	0.00	30.220 
05:45	32.1	32.1	32.1	91	29.8	0	0	---	0.00	30.220 
05:50	32.1	32.1	32.1	91	29.8	0	0	---	0.00	30.220 
05:55	32.1	32.1	32.1	91	29.8	0	0	---	0.00	30.221 
06:00	31.9	31.9	31.9	91	29.6	0	0	---	0.00	30.221 
06:05	31.9	31.9	31.9	91	29.6	0	0	---	0.00	30.225 
06:10	31.8	31.8	31.8	92	29.7	0	0	---	0.00	30.224 
06:15	31.8	31.8	31.8	92	29.7	0	0	---	0.00	30.226 
06:20	31.8	31.8	31.8	92	29.7	0	0	---	0.00	30.225 
06:25	31.6	31.6	31.6	92	29.5	0	0	---	0.00	30.225 
06:30	31.6	31.6	31.6	92	29.5	0	0	---	0.00	30.226 
06:35	31.6	31.6	31.6	92	29.5	0	0	---	0.00	30.226 
06:40	31.6	31.6	31.6	92	29.5	0	0	---	0.00	30.226 
06:45	31.6	31.6	31.6	92	29.5	0	0	---	0.00	30.227 
06:50	31.6	31.6	31.6	92	29.5	0	0	---	0.00	30.226 
06:55	31.8	31.8	31.8	92	29.7	0	0	---	0.00	30.227 
07:00	31.6	31.6	31.6	92	29.5	0	0	---	0.00	30.228 
07:05	31.8	31.8	31.8	92	29.7	0	0	---	0.00	30.233 
07:10	31.9	31.9	31.9	93	30.1	0	0	---	0.00	30.235 
07:15	32.1	32.1	32.1	93	30.3	0	0	---	0.00	30.234 
07:20	32.4	32.4	32.4	93	30.6	0	0	---	0.00	30.234 
07:25	32.8	32.8	32.8	93	31.0	0	0	---	0.00	30.234 
07:30	33.4	33.4	33.4	94	31.9	0	0	---	0.00	30.233 
07:35	33.8	33.8	33.8	93	32.0	0	0	---	0.00	30.231 
07:40	34.6	34.6	34.6	94	33.1	0	0	---	0.00	30.229 
07:45	35.3	35.3	35.3	93	33.5	0	0	---	0.00	30.230 
07:50	35.9	35.9	35.9	94	34.3	0	0	---	0.00	30.230 
07:55	36.8	36.8	36.8	93	35.0	0	0	---	0.00	30.233 
08:00	37.6	37.6	37.6	93	35.8	0	0	---	0.00	30.228 
08:05	38.5	38.5	38.5	92	36.4	0	0	---	0.00	30.233 
08:10	39.3	39.3	39.3	92	37.2	0	1	90	0.00	30.230 
08:15	40.3	40.3	40.3	91	37.9	0	0	---	0.00	30.229 
08:20	41.3	41.3	41.3	89	38.3	0	1	90	0.00	30.228 
08:25	42.3	42.3	42.3	88	39.0	0	0	---	0.00	30.227 
08:30	43.5	43.5	43.5	87	39.9	0	2	270	0.00	30.224 
08:35	44.9	44.9	44.9	85	40.7	1	3	225	0.00	30.224 
08:40	46.2	46.2	46.2	82	41.0	1	3	248	0.00	30.221 
08:45	47.4	47.4	47.4	80	41.5	1	3	248	0.00	30.219 
08:50	48.3	48.3	48.3	77	41.4	1	6	248	0.00	30.218 
08:55	49.2	49.2	49.2	76	42.0	0	2	248	0.00	30.216 
09:00	50.2	50.2	50.2	74	42.2	1	3	248	0.00	30.214 
09:05	51.1	51.1	51.1	72	42.4	1	5	248	0.00	30.208 
09:10	51.9	51.9	51.9	70	42.4	1	3	248	0.00	30.207 
09:15	52.8	52.8	52.8	70	43.3	1	3	248	0.00	30.203 
09:20	53.5	53.5	53.5	69	43.6	1	2	248	0.00	30.200 
09:25	54.4	54.4	54.4	66	43.3	1	2	248	0.00	30.198 
09:30	55.1	55.1	55.1	65	43.5	1	3	248	0.00	30.195 
09:35	55.7	55.7	55.7	64	43.7	2	4	248	0.00	30.195 
09:40	56.3	56.3	56.3	63	43.9	2	6	248	0.00	30.194 
09:45	56.7	56.7	56.7	63	44.2	1	5	248	0.00	30.192 
09:50	57.3	57.3	57.3	61	44.0	2	5	248	0.00	30.192 
09:55	57.6	57.6	57.6	61	44.2	2	5	248	0.00	30.192 
10:00	58.3	58.3	58.3	61	44.9	2	6	248	0.00	30.192 
10:05	58.7	58.7	58.7	59	44.4	2	6	248	0.00	30.194 
10:10	59.5	59.5	59.5	61	46.0	1	4	270	0.00	30.193 
10:15	59.9	59.9	59.9	57	44.6	2	5	248	0.00	30.192 
10:20	60.5	60.5	60.5	58	45.6	1	4	248	0.00	30.191 
10:25	61.3	61.3	61.3	56	45.5	1	4	248	0.00	30.191 
10:30	61.6	61.6	61.6	55	45.3	2	7	248	0.00	30.188 
10:35	61.8	61.8	61.8	54	45.0	2	6	248	0.00	30.188 
10:40	61.8	61.8	61.8	54	45.0	3	7	248	0.00	30.188 
10:45	62.0	62.0	62.0	53	44.7	3	7	270	0.00	30.188 
10:50	62.1	62.1	62.1	53	44.8	3	9	248	0.00	30.188 
10:55	62.4	62.4	62.4	54	45.5	4	11	248	0.00	30.187 
11:00	62.6	62.6	62.6	53	45.2	3	10	248	0.00	30.186 
11:05	62.7	62.7	62.7	53	45.3	4	11	270	0.00	30.186 
11:10	63.1	63.1	63.1	53	45.7	3	7	248	0.00	30.184 
11:15	63.7	63.7	63.7	51	45.2	3	10	248	0.00	30.181 
11:20	64.0	64.0	64.0	51	45.5	3	6	248	0.00	30.180 
11:25	64.2	64.2	64.2	50	45.2	4	10	270	0.00	30.180 
11:30	64.2	64.2	64.2	50	45.2	5	12	248	0.00	30.179 
11:35	64.0	64.0	64.0	50	45.0	5	11	270	0.00	30.179 
11:40	64.2	64.2	64.2	49	44.6	4	13	248	0.00	30.176 
11:45	64.5	64.5	64.5	50	45.4	4	11	270	0.00	30.174 
11:50	64.7	64.7	64.7	48	44.6	4	12	248	0.00	30.175 
11:55	64.8	64.8	64.8	49	45.2	4	13	248	0.00	30.174 
12:00	65.0	65.0	65.0	47	44.3	5	16	248	0.00	30.173 
12:05	65.2	65.2	65.2	47	44.5	5	12	270	0.00	30.173 
12:10	65.6	65.6	65.6	45	43.7	4	11	270	0.00	30.169 
12:15	66.1	66.1	66.1	46	44.7	3	10	270	0.00	30.165 
12:20	66.3	66.3	66.3	44	43.7	5	12	248	0.00	30.167 
12:25	66.3	66.3	66.3	46	44.9	3	9	248	0.00	30.165 
12:30	66.9	66.9	66.9	46	45.4	3	9	248	0.00	30.160 
12:35	67.3	67.3	67.3	43	44.0	3	9	248	0.00	30.160 
12:40	67.1	67.1	67.1	43	43.8	4	10	248	0.00	30.160 
12:45	67.3	67.3	67.3	41	42.8	4	13	248	0.00	30.159 
12:50	67.1	67.1	67.1	42	43.2	5	10	270	0.00	30.158 
12:55	67.1	67.1	67.1	41	42.6	5	11	248	0.00	30.155 
13:00	67.1	67.1	67.1	42	43.2	4	9	248	0.00	30.151 
13:05	67.6	67.6	67.6	43	44.3	3	7	248	0.00	30.151 
13:10	67.8	67.8	67.8	41	43.2	4	9	248	0.00	30.148 
13:15	68.1	68.1	68.1	41	43.5	3	7	270	0.00	30.146 
13:20	67.9	67.9	67.9	41	43.3	4	12	248	0.00	30.145 
13:25	67.9	67.9	67.9	40	42.7	3	10	248	0.00	30.144 
13:30	68.1	68.1	68.1	43	44.7	3	9	225	0.00	30.134 
13:35	68.1	68.1	68.1	42	44.1	4	10	270	0.00	30.132 
13:40	68.3	68.3	68.3	42	44.3	3	9	248	0.00	30.130 
13:45	68.8	68.8	68.8	41	44.1	3	6	270	0.00	30.127 
13:50	68.6	68.6	68.6	41	44.0	4	10	248	0.00	30.126 
13:55	68.8	68.8	68.8	43	45.4	2	6	248	0.00	30.122 
14:00	68.8	68.8	68.8	40	43.5	5	12	248	0.00	30.118 
14:05	68.8	68.8	68.8	42	44.8	4	11	248	0.00	30.115 
14:10	69.6	69.6	69.6	42	45.5	2	10	270	0.00	30.114 
14:15	69.6	69.6	69.6	39	43.5	4	10	248	0.00	30.111 
14:20	69.8	69.8	69.8	40	44.4	3	10	270	0.00	30.109 
14:25	69.6	69.6	69.6	38	42.9	4	9	248	0.00	30.105 
14:30	69.6	69.6	69.6	38	42.9	4	12	248	0.00	30.101 
14:35	69.3	69.3	69.3	40	43.9	4	10	248	0.00	30.101 
14:40	69.6	69.6	69.6	38	42.9	3	10	270	0.00	30.098 
14:45	69.9	69.9	69.9	39	43.8	3	7	248	0.00	30.096 
14:50	70.1	70.1	70.1	37	42.6	4	10	248	0.00	30.095 
14:55	70.3	70.3	70.3	38	43.5	3	12	248	0.00	30.094 
15:00	70.4	70.4	70.4	35	41.4	4	11	270	0.00	30.090 
15:05	70.3	70.3	70.3	36	42.1	4	10	270	0.00	30.091 
15:10	70.3	70.3	70.3	37	42.8	4	10	270	0.00	30.091 
15:15	70.4	70.4	70.4	37	42.9	3	11	248	0.00	30.091 
15:20	70.4	70.4	70.4	36	42.2	4	10	270	0.00	30.086 
15:25	70.4	70.4	70.4	35	41.4	4	11	270	0.00	30.084 
15:30	70.4	70.4	70.4	36	42.2	4	10	270	0.00	30.082 
15:35	70.4	70.4	70.4	36	42.2	5	11	248	0.00	30.082 
15:40	70.4	70.4	70.4	35	41.4	4	11	270	0.00	30.081 
15:45	70.4	70.4	70.4	36	42.2	4	11	248	0.00	30.082 
15:50	70.3	70.3	70.3	36	42.1	5	10	270	0.00	30.080 
15:55	70.6	70.6	70.6	35	41.6	2	11	270	0.00	30.079 
16:00	70.8	70.8	70.8	34	41.0	3	7	248	0.00	30.075 
16:05	70.6	70.6	70.6	35	41.6	4	9	248	0.00	30.075 
16:10	70.3	70.3	70.3	35	41.3	5	11	270	0.00	30.073 
16:15	70.4	70.4	70.4	34	40.7	3	10	248	0.00	30.074 
16:20	70.4	70.4	70.4	35	41.4	3	10	248	0.00	30.070 
16:25	70.3	70.3	70.3	34	40.6	5	13	248	0.00	30.070 
16:30	70.3	70.3	70.3	35	41.3	5	12	248	0.00	30.070 
16:35	70.3	70.3	70.3	35	41.3	4	9	248	0.00	30.069 
16:40	70.4	70.4	70.4	35	41.4	3	9	248	0.00	30.069 
16:45	70.4	70.4	70.4	36	42.2	3	7	270	0.00	30.069 
16:50	70.3	70.3	70.3	34	40.6	4	10	248	0.00	30.068 
16:55	70.1	70.1	70.1	35	41.2	5	10	248	0.00	30.067 
17:00	69.9	69.9	69.9	35	41.0	4	12	270	0.00	30.068 
17:05	69.9	69.9	69.9	35	41.0	5	10	270	0.00	30.067 
17:10	69.8	69.8	69.8	35	40.9	4	10	248	0.00	30.067 
17:15	69.8	69.8	69.8	35	40.9	4	12	248	0.00	30.067 
17:20	69.6	69.6	69.6	35	40.7	4	9	270	0.00	30.067 
17:25	69.6	69.6	69.6	35	40.7	3	7	248	0.00	30.067 
17:30	69.6	69.6	69.6	34	40.0	4	10	248	0.00	30.067 
17:35	69.4	69.4	69.4	34	39.8	6	14	270	0.00	30.069 
17:40	69.1	69.1	69.1	35	40.3	4	10	248	0.00	30.069 
17:45	69.1	69.1	69.1	35	40.3	6	18	248	0.00	30.069 
17:50	68.9	68.9	68.9	36	40.8	3	9	248	0.00	30.069 
17:55	68.6	68.6	68.6	36	40.6	2	10	248	0.00	30.069 
18:00	68.4	68.4	68.4	37	41.1	3	7	248	0.00	30.069 
18:05	68.3	68.3	68.3	37	41.0	4	13	270	0.00	30.069 
18:10	68.3	68.3	68.3	38	41.7	4	10	248	0.00	30.068 
18:15	67.9	67.9	67.9	38	41.3	4	12	248	0.00	30.067 
18:20	67.8	67.8	67.8	39	41.9	3	10	270	0.00	30.066 
18:25	67.6	67.6	67.6	39	41.8	4	10	248	0.00	30.065 
18:30	67.3	67.3	67.3	39	41.5	3	7	248	0.00	30.065 
18:35	66.9	66.9	66.9	40	41.8	3	7	248	0.00	30.065 
18:40	66.8	66.8	66.8	40	41.7	3	9	248	0.00	30.067 
18:45	66.6	66.6	66.6	41	42.2	3	9	248	0.00	30.065 
18:50	66.3	66.3	66.3	42	42.5	2	5	270	0.00	30.062 
18:55	66.0	66.0	66.0	42	42.2	2	6	248	0.00	30.062 
19:00	65.8	65.8	65.8	43	42.7	2	6	248	0.00	30.062 
19:05	65.5	65.5	65.5	43	42.4	3	9	248	0.00	30.057 
19:10	65.3	65.3	65.3	44	42.8	2	10	248	0.00	30.057 
19:15	65.2	65.2	65.2	44	42.7	3	9	248	0.00	30.057 
19:20	65.0	65.0	65.0	45	43.1	2	5	248	0.00	30.056 
19:25	64.7	64.7	64.7	45	42.9	2	5	248	0.00	30.054 
19:30	64.5	64.5	64.5	46	43.3	2	7	248	0.00	30.056 
19:35	64.2	64.2	64.2	46	43.0	2	5	248	0.00	30.053 
19:40	63.9	63.9	63.9	46	42.7	2	7	248	0.00	30.054 
19:45	63.7	63.7	63.7	47	43.1	1	4	248	0.00	30.056 
19:50	63.5	63.5	63.5	47	42.9	2	6	248	0.00	30.057 
19:55	63.2	63.2	63.2	48	43.2	1	3	270	0.00	30.057 
20:00	62.9	62.9	62.9	49	43.4	1	5	248	0.00	30.056 
20:05	62.6	62.6	62.6	49	43.2	1	4	248	0.00	30.046 
20:10	62.4	62.4	62.4	49	43.0	1	7	248	0.00	30.046 
20:15	62.3	62.3	62.3	50	43.4	1	4	248	0.00	30.045 
20:20	62.1	62.1	62.1	50	43.2	1	4	248	0.00	30.045 
20:25	62.0	62.0	62.0	50	43.1	2	6	248	0.00	30.044 
20:30	61.8	61.8	61.8	51	43.5	1	3	270	0.00	30.044 
20:35	61.6	61.6	61.6	51	43.3	2	7	270	0.00	30.044 
20:40	61.6	61.6	61.6	51	43.3	2	5	248	0.00	30.044 
20:45	61.5	61.5	61.5	51	43.2	1	5	248	0.00	30.044 
20:50	61.3	61.3	61.3	51	43.0	1	4	248	0.00	30.045 
20:55	61.3	61.3	61.3	51	43.0	2	10	248	0.00	30.046 
21:00	61.3	61.3	61.3	52	43.5	2	4	248	0.00	30.045 
21:05	61.0	61.0	61.0	52	43.2	1	4	248	0.00	30.039 
21:10	60.9	60.9	60.9	53	43.7	1	4	225	0.00	30.038 
21:15	60.9	60.9	60.9	53	43.7	2	7	248	0.00	30.039 
21:20	60.7	60.7	60.7	53	43.5	2	5	248	0.00	30.040 
21:25	60.7	60.7	60.7	54	44.0	2	9	248	0.00	30.042 
21:30	60.5	60.5	60.5	54	43.8	2	6	248	0.00	30.043 
21:35	60.4	60.4	60.4	54	43.7	3	6	270	0.00	30.042 
21:40	60.2	60.2	60.2	55	44.0	2	4	248	0.00	30.043 
21:45	60.1	60.1	60.1	55	43.9	2	7	248	0.00	30.042 
21:50	59.9	59.9	59.9	55	43.7	1	4	248	0.00	30.046 
21:55	59.6	59.6	59.6	56	43.9	2	5	248	0.00	30.048 
22:00	59.5	59.5	59.5	56	43.8	2	6	248	0.00	30.049 
22:05	59.3	59.3	59.3	57	44.1	2	6	248	0.00	30.045 
22:10	59.3	59.3	59.3	57	44.1	3	9	248	0.00	30.043 
22:15	59.2	59.2	59.2	57	44.0	2	4	248	0.00	30.043 
22:20	59.0	59.0	59.0	58	44.2	2	4	248	0.00	30.042 
22:25	58.9	58.9	58.9	58	44.1	2	6	248	0.00	30.042 
22:30	58.7	58.7	58.7	58	44.0	2	4	248	0.00	30.042 
22:35	58.6	58.6	58.6	58	43.9	2	4	248	0.00	30.045 
22:40	58.6	58.6	58.6	58	43.9	2	7	248	0.00	30.047 
22:45	58.6	58.6	58.6	58	43.9	2	6	248	0.00	30.048 
22:50	58.6	58.6	58.6	58	43.9	2	7	248	0.00	30.049 
22:55	58.7	58.7	58.7	58	44.0	3	6	248	0.00	30.049 
23:00	58.6	58.6	58.6	58	43.9	2	6	248	0.00	30.048 
23:05	58.6	58.6	58.6	58	43.9	2	5	248	0.00	30.047 
23:10	58.6	58.6	58.6	58	43.9	2	7	248	0.00	30.047 
23:15	58.6	58.6	58.6	58	43.9	3	7	248	0.00	30.047 
23:20	58.6	58.6	58.6	58	43.9	2	6	248	0.00	30.048 
23:25	58.6	58.6	58.6	58	43.9	3	7	248	0.00	30.047 
23:30	58.6	58.6	58.6	58	43.9	3	7	248	0.00	30.047 
23:35	58.7	58.7	58.7	58	44.0	3	7	248	0.00	30.047 
23:40	58.7	58.7	58.7	57	43.5	3	7	248	0.00	30.046 
23:45	58.9	58.9	58.9	57	43.7	3	6	248	0.00	30.045 
23:50	59.0	59.0	59.0	57	43.8	3	8	248	0.00	30.043 
23:55	59.0	59.0	59.0	57	43.8	4	9	248	0.00	30.041 

CoCoRaHS
IN-AL-39
A2 Web Hosting
Creative Commons License
GoDaddy
search engine by freefind advanced

loaded 2018-11-17 00:09:10 • last modified 2010-11-18 10:43:29
Privacy PolicyDisclaimer
• wx.awcolley.com is powered by PmWiki v.2002016 •
• all content (unless otherwise noted) © 2018 A W Colley